Time;durP1;ratioP1;P1;durP2;ratioP2;P2;SDS_P1;SDS_P2;PMS_P1;PMS_P2;Temp;Humidity;BMP_temperature;BMP_pressure;BME280_temperature;BME280_humidity;BME280_pressure;Samples;Min_cycle;Max_cycle;Signal;HPM_P1;HPM_P2
2021/06/04 00:01:07;;;;;;;2.30;2.10;;;25.30;68.00;;;;;;5053280;28;20486;-88
2021/06/04 00:03:33;;;;;;;2.33;2.23;;;25.30;68.00;;;;;;5053685;28;20444;-88
2021/06/04 00:06:00;;;;;;;2.33;2.13;;;25.30;68.00;;;;;;5053349;28;20907;-89
2021/06/04 00:08:26;;;;;;;2.50;2.30;;;25.30;68.00;;;;;;5053473;28;20494;-88
2021/06/04 00:10:56;;;;;;;2.30;2.10;;;25.30;68.00;;;;;;5053634;28;20526;-88
2021/06/04 00:13:26;;;;;;;2.00;1.90;;;25.30;68.10;;;;;;5054065;28;20531;-89
2021/06/04 00:15:55;;;;;;;2.40;2.20;;;25.30;68.00;;;;;;5055723;28;20438;-88
2021/06/04 00:18:24;;;;;;;2.47;2.37;;;25.20;68.00;;;;;;5057609;28;20436;-88
2021/06/04 00:20:50;;;;;;;3.10;2.80;;;25.30;68.10;;;;;;5057760;28;20496;-88
2021/06/04 00:23:17;;;;;;;2.10;2.00;;;25.30;68.10;;;;;;5058932;28;20557;-88
2021/06/04 00:25:43;;;;;;;2.33;2.13;;;25.20;68.00;;;;;;5059240;28;20468;-88
2021/06/04 00:28:10;;;;;;;3.10;2.90;;;25.20;68.00;;;;;;5058932;28;20444;-88
2021/06/04 00:30:36;;;;;;;2.60;2.40;;;25.20;68.00;;;;;;5058178;28;20555;-87
2021/06/04 00:33:04;;;;;;;2.13;2.03;;;25.20;68.10;;;;;;5057369;28;20430;-87
2021/06/04 00:35:32;;;;;;;2.60;2.40;;;25.30;68.10;;;;;;5056816;28;20440;-88
2021/06/04 00:37:59;;;;;;;2.00;1.80;;;25.20;68.00;;;;;;5056942;28;20447;-88
2021/06/04 00:40:32;;;;;;;2.47;2.27;;;25.20;68.00;;;;;;5056582;28;20982;-88
2021/06/04 00:42:58;;;;;;;2.47;2.30;;;25.20;68.00;;;;;;5039774;28;20441;-88
2021/06/04 00:45:28;;;;;;;2.50;2.30;;;25.20;68.30;;;;;;5056613;28;20476;-88
2021/06/04 00:47:55;;;;;;;2.77;2.57;;;25.20;68.10;;;;;;5057260;28;20435;-88
2021/06/04 00:50:27;;;;;;;2.13;1.90;;;25.20;68.10;;;;;;5056981;28;20443;-88
2021/06/04 00:52:55;;;;;;;2.00;1.90;;;25.20;68.90;;;;;;5057124;28;20984;-88
2021/06/04 00:55:23;;;;;;;2.20;2.00;;;25.20;68.00;;;;;;5039096;28;20471;-88
2021/06/04 00:57:49;;;;;;;2.30;2.20;;;25.20;68.00;;;;;;5057179;28;20515;-88
2021/06/04 01:00:22;;;;;;;2.10;2.00;;;25.20;68.00;;;;;;5056616;28;20525;-88
2021/06/04 01:02:49;;;;;;;2.27;2.17;;;25.20;68.10;;;;;;5056763;28;20841;-88
2021/06/04 01:05:16;;;;;;;2.17;2.07;;;25.20;68.00;;;;;;5056645;28;20494;-88
2021/06/04 01:07:54;;;;;;;2.20;2.10;;;25.20;68.00;;;;;;5056709;28;20443;-88
2021/06/04 01:10:31;;;;;;;2.30;2.10;;;25.20;68.00;;;;;;5056283;28;20802;-88
2021/06/04 01:13:05;;;;;;;2.17;2.07;;;25.20;68.10;;;;;;5056206;28;20428;-86
2021/06/04 01:15:43;;;;;;;2.33;2.20;;;25.20;68.00;;;;;;5056372;28;21165;-88
2021/06/04 01:18:15;;;;;;;2.30;2.20;;;25.20;68.00;;;;;;5056492;28;20438;-88
2021/06/04 01:20:47;;;;;;;2.30;2.20;;;25.20;68.00;;;;;;5056275;28;20572;-88
2021/06/04 01:23:43;;;;;;;2.60;2.40;;;25.30;68.00;;;;;;5056313;28;20437;-88
2021/06/04 01:26:15;;;;;;;2.70;2.07;;;25.20;68.00;;;;;;5049127;28;20959;-88
2021/06/04 01:28:46;;;;;;;2.23;2.13;;;25.20;68.00;;;;;;5055909;28;20917;-88
2021/06/04 01:31:17;;;;;;;1.90;1.80;;;25.20;68.30;;;;;;5055954;28;20457;-88
2021/06/04 01:33:48;;;;;;;2.10;2.00;;;25.20;68.00;;;;;;5055673;28;20447;-88
2021/06/04 01:36:17;;;;;;;1.97;1.87;;;25.20;68.00;;;;;;5055899;28;20474;-87
2021/06/04 01:38:43;;;;;;;2.13;2.03;;;25.20;68.10;;;;;;5055723;28;20443;-88
2021/06/04 01:41:15;;;;;;;2.00;1.90;;;25.20;68.10;;;;;;5055397;28;20488;-88
2021/06/04 01:43:45;;;;;;;1.93;1.83;;;25.20;68.10;;;;;;5055806;28;20444;-88
2021/06/04 01:46:14;;;;;;;2.20;2.10;;;25.20;68.20;;;;;;5055230;28;20471;-88
2021/06/04 01:48:44;;;;;;;1.97;1.87;;;25.20;68.00;;;;;;5055614;28;20446;-88
2021/06/04 01:51:17;;;;;;;2.27;1.90;;;25.20;68.00;;;;;;5055452;28;20481;-88
2021/06/04 01:53:47;;;;;;;1.57;1.47;;;25.20;68.10;;;;;;5055405;28;20460;-88
2021/06/04 01:56:17;;;;;;;1.83;1.73;;;25.20;68.00;;;;;;5055811;28;20770;-88
2021/06/04 01:58:48;;;;;;;1.80;1.70;;;25.20;68.10;;;;;;5055236;28;20799;-88
2021/06/04 02:01:17;;;;;;;1.97;1.87;;;25.20;68.00;;;;;;5055014;28;20549;-88
2021/06/04 02:03:44;;;;;;;2.03;1.93;;;25.20;68.00;;;;;;5055135;28;20448;-87
2021/06/04 02:06:11;;;;;;;2.17;2.07;;;25.20;68.00;;;;;;5055473;28;20776;-88
2021/06/04 02:08:42;;;;;;;2.30;2.20;;;25.20;68.00;;;;;;5055439;28;20440;-88
2021/06/04 02:11:12;;;;;;;2.40;2.20;;;25.20;68.00;;;;;;5055111;28;20809;-88
2021/06/04 02:13:43;;;;;;;1.80;1.70;;;25.20;68.40;;;;;;5055286;28;20467;-88
2021/06/04 02:16:37;;;;;;;2.00;1.90;;;25.20;68.00;;;;;;5055074;28;20432;-88
2021/06/04 02:19:17;;;;;;;2.00;1.90;;;25.20;68.10;;;;;;5055229;28;20433;-88
2021/06/04 02:21:48;;;;;;;1.83;1.73;;;25.20;68.10;;;;;;5055101;28;20452;-88
2021/06/04 02:24:20;;;;;;;1.80;1.70;;;25.20;68.00;;;;;;5054848;28;20466;-88
2021/06/04 02:26:51;;;;;;;2.30;2.20;;;25.20;68.10;;;;;;5054953;28;20436;-88
2021/06/04 02:29:31;;;;;;;1.80;1.70;;;25.20;68.00;;;;;;5054992;28;20475;-88
2021/06/04 02:32:04;;;;;;;2.67;2.47;;;25.20;68.10;;;;;;5054531;28;20926;-88
2021/06/04 02:34:36;;;;;;;2.00;1.90;;;25.20;68.10;;;;;;5054746;28;20444;-88
2021/06/04 02:37:07;;;;;;;1.60;1.50;;;25.20;68.20;;;;;;5054577;28;20440;-87
2021/06/04 02:39:38;;;;;;;1.97;1.83;;;25.20;68.20;;;;;;5054111;28;20479;-89
2021/06/04 02:42:11;;;;;;;1.87;1.77;;;25.20;68.20;;;;;;5054679;28;20449;-88
2021/06/04 02:44:43;;;;;;;2.07;1.97;;;25.20;68.50;;;;;;5037287;28;20437;-87
2021/06/04 02:47:14;;;;;;;1.90;1.80;;;25.20;69.60;;;;;;5054640;28;20828;-87
2021/06/04 02:49:41;;;;;;;2.00;1.90;;;25.20;68.20;;;;;;5054202;28;20442;-88
2021/06/04 02:52:11;;;;;;;1.70;1.60;;;25.20;68.50;;;;;;5054543;28;20454;-88
2021/06/04 02:54:42;;;;;;;1.97;1.87;;;25.20;68.10;;;;;;5055225;28;20791;-88
2021/06/04 02:57:12;;;;;;;2.30;2.20;;;25.20;68.10;;;;;;5054211;28;20935;-88
2021/06/04 02:59:42;;;;;;;1.90;1.80;;;25.20;68.30;;;;;;5054251;28;20489;-87
2021/06/04 03:02:12;;;;;;;1.90;1.80;;;25.20;68.20;;;;;;5054371;28;20432;-88
2021/06/04 03:04:43;;;;;;;1.97;1.87;;;25.20;68.50;;;;;;5054369;28;20427;-88
2021/06/04 03:07:12;;;;;;;1.80;1.70;;;25.20;68.40;;;;;;5054311;28;20432;-88
2021/06/04 03:09:41;;;;;;;1.67;1.57;;;25.20;68.30;;;;;;5054156;28;20452;-88
2021/06/04 03:12:12;;;;;;;1.97;1.77;;;25.20;68.30;;;;;;5053848;28;20961;-88
2021/06/04 03:14:40;;;;;;;2.00;1.80;;;25.20;68.30;;;;;;5036319;28;20448;-88
2021/06/04 03:17:10;;;;;;;1.63;1.53;;;25.20;68.50;;;;;;5054013;28;20491;-88
2021/06/04 03:19:37;;;;;;;2.07;1.87;;;25.20;68.40;;;;;;5053825;28;20479;-87
2021/06/04 03:22:09;;;;;;;1.87;1.77;;;25.20;68.20;;;;;;5053996;28;20447;-88
2021/06/04 03:24:40;;;;;;;1.70;1.60;;;25.20;68.10;;;;;;5054112;28;20424;-88
2021/06/04 03:27:09;;;;;;;1.93;1.83;;;25.20;69.00;;;;;;5054007;28;20497;-87
2021/06/04 03:29:35;;;;;;;2.13;1.97;;;25.20;68.30;;;;;;5035801;28;20468;-88
2021/06/04 03:32:07;;;;;;;2.20;2.10;;;25.20;68.20;;;;;;5053600;28;20444;-88
2021/06/04 03:34:35;;;;;;;1.80;1.70;;;25.20;68.30;;;;;;5053958;28;20837;-88
2021/06/04 03:37:02;;;;;;;1.50;1.40;;;25.20;68.10;;;;;;5053810;28;20855;-88
2021/06/04 03:39:32;;;;;;;1.87;1.77;;;25.20;68.20;;;;;;5053343;28;20447;-88
2021/06/04 03:42:00;;;;;;;1.80;1.70;;;25.20;68.20;;;;;;5053416;28;20447;-88
2021/06/04 03:44:29;;;;;;;1.60;1.50;;;25.20;68.20;;;;;;5053196;28;20862;-88
2021/06/04 03:46:57;;;;;;;1.83;1.73;;;25.20;68.10;;;;;;5035925;28;20436;-88
2021/06/04 03:49:26;;;;;;;1.97;1.87;;;25.30;69.00;;;;;;5053600;28;20473;-88
2021/06/04 03:51:54;;;;;;;2.10;1.90;;;25.20;68.40;;;;;;5053331;28;20440;-88
2021/06/04 03:54:24;;;;;;;1.77;1.67;;;25.20;68.30;;;;;;5053523;28;20538;-88
2021/06/04 03:56:51;;;;;;;1.93;1.83;;;25.20;68.30;;;;;;5053606;28;20439;-88
2021/06/04 03:59:17;;;;;;;1.60;1.50;;;25.20;68.10;;;;;;5053140;28;20472;-88
2021/06/04 04:01:46;;;;;;;1.83;1.73;;;25.20;68.20;;;;;;5035680;28;20454;-88
2021/06/04 04:04:14;;;;;;;1.67;1.57;;;25.20;68.30;;;;;;5053476;28;20799;-88
2021/06/04 04:06:42;;;;;;;1.70;1.60;;;25.20;68.10;;;;;;5053184;28;20452;-88
2021/06/04 04:09:10;;;;;;;1.87;1.53;;;25.20;68.10;;;;;;5053258;28;20432;-88
2021/06/04 04:11:38;;;;;;;1.90;1.80;;;25.20;68.10;;;;;;5053055;28;20447;-88
2021/06/04 04:14:05;;;;;;;1.83;1.73;;;25.20;68.00;;;;;;5053371;28;20435;-88
2021/06/04 04:16:33;;;;;;;1.90;1.80;;;25.20;68.00;;;;;;5053422;28;20440;-88
2021/06/04 04:18:59;;;;;;;1.70;1.60;;;25.20;68.10;;;;;;5053234;28;20448;-88
2021/06/04 04:21:27;;;;;;;2.07;1.97;;;25.20;68.10;;;;;;5053284;28;20953;-88
2021/06/04 04:23:57;;;;;;;1.83;1.73;;;25.20;68.10;;;;;;5052994;28;20444;-88
2021/06/04 04:26:28;;;;;;;1.67;1.57;;;25.20;68.00;;;;;;5053405;28;20437;-88
2021/06/04 04:28:54;;;;;;;1.60;1.50;;;25.20;68.00;;;;;;5053115;28;20823;-87
2021/06/04 04:31:24;;;;;;;1.70;1.60;;;25.40;68.20;;;;;;5052934;28;20440;-88
2021/06/04 04:33:52;;;;;;;1.50;1.40;;;25.20;68.10;;;;;;5052969;28;20436;-88
2021/06/04 04:36:20;;;;;;;1.53;1.43;;;25.20;68.00;;;;;;5052835;28;20448;-87
2021/06/04 04:38:47;;;;;;;1.60;1.50;;;25.20;68.00;;;;;;5053018;28;20949;-87
2021/06/04 04:41:15;;;;;;;1.60;1.50;;;25.20;67.90;;;;;;5052987;28;20488;-87
2021/06/04 04:43:45;;;;;;;1.60;1.50;;;25.20;67.90;;;;;;5053166;28;20444;-88
2021/06/04 04:46:12;;;;;;;1.33;1.23;;;25.20;67.80;;;;;;5052812;28;20476;-87
2021/06/04 04:48:39;;;;;;;1.90;1.80;;;25.20;67.90;;;;;;5053112;28;20481;-87
2021/06/04 04:51:07;;;;;;;1.70;1.60;;;25.20;68.00;;;;;;5053001;28;20439;-88
2021/06/04 04:53:34;;;;;;;1.70;1.60;;;25.20;68.00;;;;;;5053006;28;20773;-88
2021/06/04 04:56:01;;;;;;;1.77;1.67;;;25.20;68.00;;;;;;5053067;28;20458;-87
2021/06/04 04:58:28;;;;;;;1.40;1.30;;;25.20;68.00;;;;;;5018568;28;20455;-88
2021/06/04 05:00:56;;;;;;;1.50;1.40;;;25.20;68.00;;;;;;5053183;28;20487;-88
2021/06/04 05:03:24;;;;;;;1.73;1.40;;;25.20;67.90;;;;;;5056553;28;20450;-87
2021/06/04 05:05:50;;;;;;;1.63;1.53;;;25.20;68.00;;;;;;5056570;28;20950;-88
2021/06/04 05:08:17;;;;;;;1.70;1.60;;;25.20;67.90;;;;;;5056446;28;20455;-87
2021/06/04 05:10:45;;;;;;;1.73;1.63;;;25.20;67.90;;;;;;5056405;28;20902;-88
2021/06/04 05:13:11;;;;;;;1.73;1.63;;;25.20;67.90;;;;;;5056411;28;20461;-88
2021/06/04 05:15:41;;;;;;;1.70;1.60;;;25.20;67.90;;;;;;5022239;28;20442;-87
2021/06/04 05:18:08;;;;;;;1.60;1.50;;;25.20;67.90;;;;;;5056024;28;20444;-87
2021/06/04 05:20:35;;;;;;;1.80;1.70;;;25.20;67.90;;;;;;5055887;28;20487;-87
2021/06/04 05:23:03;;;;;;;1.90;1.80;;;25.20;67.90;;;;;;5055894;28;20452;-87
2021/06/04 05:25:32;;;;;;;1.77;1.67;;;25.20;68.00;;;;;;5056224;28;20445;-87
2021/06/04 05:27:59;;;;;;;1.53;1.43;;;25.20;68.00;;;;;;5038376;28;20441;-87
2021/06/04 05:30:29;;;;;;;1.80;1.70;;;25.20;68.00;;;;;;5056011;28;20490;-87
2021/06/04 05:32:58;;;;;;;1.97;1.87;;;25.20;68.00;;;;;;5055922;28;20440;-87
2021/06/04 05:35:25;;;;;;;1.67;1.57;;;25.20;67.90;;;;;;5038295;28;20439;-88
2021/06/04 05:37:52;;;;;;;1.50;1.40;;;25.20;67.90;;;;;;5055964;28;20436;-87
2021/06/04 05:40:21;;;;;;;2.00;1.90;;;25.20;68.00;;;;;;5055393;28;20476;-87
2021/06/04 05:42:47;;;;;;;1.60;1.50;;;25.20;68.00;;;;;;5055857;28;20504;-87
2021/06/04 05:45:17;;;;;;;1.70;1.60;;;25.20;68.00;;;;;;5055597;28;20471;-87
2021/06/04 05:47:44;;;;;;;1.50;1.40;;;25.20;68.10;;;;;;5055880;28;20842;-87
2021/06/04 05:50:15;;;;;;;1.40;1.30;;;25.20;68.10;;;;;;5055540;28;20445;-87
2021/06/04 05:52:42;;;;;;;1.70;1.60;;;25.20;68.10;;;;;;5055856;28;20817;-87
2021/06/04 05:55:11;;;;;;;2.20;2.00;;;25.20;68.20;;;;;;5055746;28;20498;-88
2021/06/04 05:57:37;;;;;;;1.67;1.57;;;25.20;68.30;;;;;;5055284;28;20448;-87
2021/06/04 06:00:07;;;;;;;1.73;1.63;;;25.20;69.20;;;;;;5055116;28;20490;-87
2021/06/04 06:02:33;;;;;;;1.53;1.43;;;25.20;68.30;;;;;;5054967;28;20459;-89
2021/06/04 06:05:00;;;;;;;1.43;1.33;;;25.20;68.40;;;;;;5055241;28;20534;-88
2021/06/04 06:07:27;;;;;;;1.60;1.50;;;25.20;68.40;;;;;;5055407;28;20448;-87
2021/06/04 06:09:54;;;;;;;2.20;2.10;;;25.20;68.20;;;;;;5055271;28;20440;-88
2021/06/04 06:12:20;;;;;;;3.37;3.17;;;25.20;68.30;;;;;;5054888;28;20795;-89
2021/06/04 06:14:46;;;;;;;2.37;2.27;;;25.20;68.90;;;;;;5054432;28;20491;-89
2021/06/04 06:17:13;;;;;;;3.57;3.37;;;25.20;68.80;;;;;;5057746;28;20498;-87
2021/06/04 06:19:39;;;;;;;5.03;4.63;;;25.20;69.00;;;;;;5071839;28;20435;-87
2021/06/04 06:22:05;;;;;;;5.80;5.30;;;25.20;70.10;;;;;;5074665;28;20988;-88
2021/06/04 06:24:33;;;;;;;4.37;4.07;;;25.20;70.10;;;;;;5074861;28;20436;-89
2021/06/04 06:26:59;;;;;;;6.57;5.97;;;25.30;70.00;;;;;;5075012;28;20448;-88
2021/06/04 06:29:29;;;;;;;5.43;5.03;;;25.20;70.40;;;;;;5074734;28;20831;-88
2021/06/04 06:31:56;;;;;;;6.03;5.60;;;25.20;70.40;;;;;;5074744;28;20443;-89
2021/06/04 06:34:22;;;;;;;7.70;7.13;;;25.20;70.50;;;;;;5074602;28;20787;-89
2021/06/04 06:36:49;;;;;;;6.47;5.80;;;25.20;70.70;;;;;;5074872;28;20465;-88
2021/06/04 06:39:19;;;;;;;6.77;6.17;;;25.20;70.80;;;;;;5074499;28;20441;-88
2021/06/04 06:41:48;;;;;;;8.47;7.47;;;25.30;70.90;;;;;;5074319;28;20551;-88
2021/06/04 06:44:15;;;;;;;9.90;8.03;;;25.30;71.00;;;;;;5074466;28;20451;-88
2021/06/04 06:46:43;;;;;;;6.20;5.70;;;25.30;71.20;;;;;;5074113;28;20487;-88
2021/06/04 06:49:10;;;;;;;6.60;6.10;;;25.30;71.50;;;;;;5074230;28;20815;-87
2021/06/04 06:51:37;;;;;;;6.20;5.70;;;25.30;72.70;;;;;;5074465;28;20440;-88
2021/06/04 06:54:06;;;;;;;6.30;5.80;;;25.30;73.20;;;;;;5074427;28;20495;-88
2021/06/04 06:56:33;;;;;;;6.93;6.40;;;25.30;72.30;;;;;;5074155;28;20956;-84
2021/06/04 06:59:01;;;;;;;5.97;5.57;;;25.30;71.70;;;;;;5074067;28;20475;-88
2021/06/04 07:01:27;;;;;;;5.60;5.20;;;25.30;74.10;;;;;;5074140;28;20484;-87
2021/06/04 07:03:54;;;;;;;6.80;6.20;;;25.30;73.80;;;;;;5074016;28;20446;-87
2021/06/04 07:06:23;;;;;;;6.47;5.87;;;25.30;73.20;;;;;;5073730;28;20446;-87
2021/06/04 07:08:50;;;;;;;5.80;5.30;;;25.30;72.70;;;;;;5073591;28;20438;-87
2021/06/04 07:11:18;;;;;;;5.40;4.97;;;25.30;72.70;;;;;;5055729;28;20940;-88
2021/06/04 07:13:45;;;;;;;10.23;4.60;;;25.30;72.50;;;;;;5073229;28;20980;-87
2021/06/04 07:16:14;;;;;;;5.80;5.30;;;25.30;72.50;;;;;;5073637;28;20504;-87
2021/06/04 07:18:40;;;;;;;5.80;5.23;;;25.30;72.50;;;;;;5073567;28;20937;-87
2021/06/04 07:21:09;;;;;;;5.97;5.43;;;25.30;72.60;;;;;;5073178;28;20487;-87
2021/06/04 07:23:36;;;;;;;5.20;4.73;;;25.30;72.60;;;;;;5073437;28;20469;-87
2021/06/04 07:26:04;;;;;;;5.00;4.60;;;25.30;72.50;;;;;;5073358;28;20459;-87
2021/06/04 07:28:34;;;;;;;6.60;4.23;;;25.30;72.50;;;;;;5073384;28;20450;-87
2021/06/04 07:31:03;;;;;;;4.70;4.30;;;25.30;72.50;;;;;;5073135;28;20440;-87
2021/06/04 07:33:33;;;;;;;6.03;5.33;;;25.30;72.50;;;;;;5073293;28;20451;-87
2021/06/04 07:36:02;;;;;;;5.23;4.93;;;25.30;72.20;;;;;;5073294;28;20446;-87
2021/06/04 07:38:29;;;;;;;4.50;4.20;;;25.30;72.40;;;;;;5073301;28;20442;-87
2021/06/04 07:40:56;;;;;;;4.77;4.40;;;25.30;72.20;;;;;;5073168;28;20514;-87
2021/06/04 07:43:26;;;;;;;5.43;4.97;;;25.40;72.20;;;;;;5073223;28;20446;-87
2021/06/04 07:45:53;;;;;;;4.90;4.50;;;25.40;72.30;;;;;;5072920;28;20473;-87
2021/06/04 07:48:20;;;;;;;4.87;4.47;;;25.40;72.30;;;;;;5073190;28;20929;-87
2021/06/04 07:50:50;;;;;;;4.40;4.00;;;25.40;72.20;;;;;;5072962;28;20442;-87
2021/06/04 07:53:20;;;;;;;4.87;4.37;;;25.40;72.00;;;;;;5073136;28;20446;-87
2021/06/04 07:55:47;;;;;;;4.60;4.20;;;25.40;71.90;;;;;;5073076;28;20442;-86
2021/06/04 07:58:15;;;;;;;4.87;4.47;;;25.40;71.90;;;;;;5073015;28;20435;-87
2021/06/04 08:00:41;;;;;;;4.10;3.80;;;25.40;71.80;;;;;;5072789;28;20494;-87
2021/06/04 08:03:09;;;;;;;4.13;3.83;;;25.40;71.80;;;;;;5073048;28;20443;-87
2021/06/04 08:05:36;;;;;;;4.53;4.13;;;25.40;71.70;;;;;;5073050;28;20449;-87
2021/06/04 08:08:06;;;;;;;4.27;3.90;;;25.40;71.60;;;;;;5072900;28;20510;-87
2021/06/04 08:10:33;;;;;;;4.60;4.20;;;25.40;71.70;;;;;;5072857;28;20442;-87
2021/06/04 08:13:00;;;;;;;4.40;4.00;;;25.50;71.80;;;;;;5072823;28;20459;-87
2021/06/04 08:15:30;;;;;;;5.03;4.53;;;25.40;71.70;;;;;;5055013;28;20447;-88
2021/06/04 08:17:57;;;;;;;4.73;4.03;;;25.50;71.70;;;;;;5072789;28;20924;-86
2021/06/04 08:20:27;;;;;;;3.73;3.53;;;25.50;71.90;;;;;;5055125;28;20562;-87
2021/06/04 08:22:56;;;;;;;4.30;3.90;;;25.50;71.80;;;;;;5072845;28;20462;-87
2021/06/04 08:25:26;;;;;;;4.27;3.93;;;25.50;71.80;;;;;;5073121;28;20835;-87
2021/06/04 08:27:53;;;;;;;4.57;4.27;;;25.50;71.70;;;;;;5072747;28;20444;-88
2021/06/04 08:30:19;;;;;;;4.50;4.13;;;25.50;71.80;;;;;;5072473;28;20490;-87
2021/06/04 08:32:46;;;;;;;4.20;3.80;;;25.50;71.90;;;;;;5072758;28;21109;-87
2021/06/04 08:35:14;;;;;;;4.20;3.90;;;25.50;71.90;;;;;;5072745;28;20438;-87
2021/06/04 08:37:40;;;;;;;3.97;3.57;;;25.50;72.00;;;;;;5076076;28;20443;-87
2021/06/04 08:40:10;;;;;;;5.10;4.30;;;25.50;72.00;;;;;;5076916;28;20487;-87
2021/06/04 08:42:47;;;;;;;4.37;4.07;;;25.60;73.00;;;;;;5059202;28;20451;-85
2021/06/04 08:45:29;;;;;;;4.20;3.80;;;25.60;72.00;;;;;;5076849;28;20893;-87
2021/06/04 08:48:03;;;;;;;4.70;4.40;;;25.60;72.30;;;;;;5077121;28;20927;-88
2021/06/04 08:50:37;;;;;;;3.83;3.53;;;25.80;72.20;;;;;;5076761;28;20476;-88
2021/06/04 08:53:21;;;;;;;3.70;3.50;;;25.60;71.80;;;;;;5077036;28;20435;-88
2021/06/04 08:55:58;;;;;;;3.80;3.47;;;25.60;71.70;;;;;;5076767;28;20886;-88
2021/06/04 08:58:43;;;;;;;3.50;3.30;;;25.60;71.80;;;;;;5076772;28;20439;-88
2021/06/04 09:01:15;;;;;;;4.13;3.83;;;25.60;71.80;;;;;;5076458;28;21025;-88
2021/06/04 09:03:46;;;;;;;3.43;3.23;;;25.60;71.80;;;;;;5076662;28;20447;-88
2021/06/04 09:06:26;;;;;;;2.90;2.80;;;25.60;71.70;;;;;;5076703;28;20440;-89
2021/06/04 09:08:53;;;;;;;4.43;4.13;;;25.50;71.60;;;;;;5076499;28;20444;-88
2021/06/04 09:11:26;;;;;;;3.93;3.60;;;25.50;71.70;;;;;;5076096;28;20443;-87
2021/06/04 09:13:54;;;;;;;4.10;3.80;;;25.50;71.70;;;;;;5076050;28;20457;-88
2021/06/04 09:16:30;;;;;;;3.90;3.60;;;25.50;72.00;;;;;;5076187;28;20438;-88
2021/06/04 09:18:59;;;;;;;5.00;4.70;;;25.70;72.10;;;;;;5076133;28;20439;-88
2021/06/04 09:21:30;;;;;;;5.43;5.03;;;25.50;72.30;;;;;;5075869;28;20491;-88
2021/06/04 09:24:00;;;;;;;5.60;5.10;;;25.50;72.30;;;;;;5077674;28;20447;-87
2021/06/04 09:26:28;;;;;;;4.70;4.30;;;25.50;72.80;;;;;;5075835;28;20509;-87
2021/06/04 09:29:29;;;;;;;6.10;5.33;;;25.50;72.70;;;;;;5078414;28;20472;-86
2021/06/04 09:31:58;;;;;;;4.67;4.37;;;25.50;72.50;;;;;;5075782;28;20500;-87
2021/06/04 09:34:30;;;;;;;5.07;4.67;;;25.50;72.70;;;;;;5075770;28;20442;-87
2021/06/04 09:36:59;;;;;;;4.93;4.63;;;25.50;72.70;;;;;;5075693;28;20455;-86
2021/06/04 09:39:34;;;;;;;4.47;4.17;;;25.50;72.70;;;;;;5075474;28;20454;-86
2021/06/04 09:42:17;;;;;;;5.30;4.90;;;25.60;72.80;;;;;;5075496;28;20490;-86
2021/06/04 09:45:14;;;;;;;4.97;4.60;;;25.60;73.30;;;;;;5075261;28;20567;-85
2021/06/04 09:47:43;;;;;;;4.80;4.40;;;25.60;73.90;;;;;;5074052;28;20947;-85
2021/06/04 09:50:21;;;;;;;5.73;5.27;;;25.50;73.40;;;;;;5075050;28;20448;-83
2021/06/04 09:53:01;;;;;;;5.20;4.90;;;25.50;73.70;;;;;;5075230;28;20450;-83
2021/06/04 09:55:30;;;;;;;4.90;4.60;;;25.60;73.90;;;;;;5055051;28;20436;-83
2021/06/04 09:58:03;;;;;;;5.00;4.70;;;25.50;73.70;;;;;;5055243;28;20453;-83
2021/06/04 10:00:33;;;;;;;5.30;5.00;;;25.50;74.00;;;;;;5055039;28;20490;-85
2021/06/04 10:03:29;;;;;;;5.13;4.67;;;25.50;74.10;;;;;;5062373;28;20457;-84
2021/06/04 10:06:25;;;;;;;5.17;4.77;;;25.50;74.10;;;;;;5059586;28;20966;-84
2021/06/04 10:08:53;;;;;;;4.87;4.57;;;25.50;74.10;;;;;;5009443;28;20444;-85
2021/06/04 10:11:24;;;;;;;5.80;5.30;;;25.60;74.40;;;;;;5055071;28;20440;-85
2021/06/04 10:13:55;;;;;;;5.27;4.63;;;25.50;74.40;;;;;;5055407;28;20508;-87
2021/06/04 10:16:40;;;;;;;4.60;4.23;;;25.50;74.30;;;;;;5055205;28;21037;-86
2021/06/04 10:19:21;;;;;;;4.10;3.80;;;25.50;74.10;;;;;;5054891;28;20515;-88
2021/06/04 10:21:49;;;;;;;3.63;3.33;;;25.50;73.00;;;;;;5053811;28;20532;-87
2021/06/04 10:24:27;;;;;;;3.70;3.40;;;25.50;72.80;;;;;;5053775;28;20598;-86
2021/06/04 10:26:56;;;;;;;4.03;3.83;;;25.50;72.60;;;;;;5053727;28;20595;-87
2021/06/04 10:29:23;;;;;;;3.63;3.33;;;25.50;72.60;;;;;;5053519;28;20457;-89
2021/06/04 10:31:54;;;;;;;3.63;3.30;;;25.50;72.50;;;;;;5053537;28;20446;-86
2021/06/04 10:34:56;;;;;;;3.90;3.70;;;25.50;72.40;;;;;;5053575;28;20442;-84
2021/06/04 10:37:27;;;;;;;5.03;4.63;;;25.50;72.20;;;;;;5054391;28;20833;-84
2021/06/04 10:40:01;;;;;;;4.00;3.70;;;25.50;73.70;;;;;;5054296;28;20508;-86
2021/06/04 10:42:35;;;;;;;4.03;3.63;;;25.50;73.40;;;;;;5054267;28;20440;-87
2021/06/04 10:45:14;;;;;;;5.67;3.70;;;25.50;72.70;;;;;;5054175;28;20480;-86
2021/06/04 10:47:58;;;;;;;4.03;3.63;;;25.50;72.50;;;;;;5054278;28;20439;-87
2021/06/04 10:50:27;;;;;;;5.97;3.53;;;25.50;72.40;;;;;;5054068;28;20501;-87
2021/06/04 10:53:00;;;;;;;4.60;3.77;;;25.50;72.20;;;;;;5054132;28;20488;-87
2021/06/04 10:55:31;;;;;;;9.17;3.80;;;25.50;72.20;;;;;;5054153;28;21069;-87
2021/06/04 10:58:07;;;;;;;4.27;3.90;;;25.50;72.20;;;;;;5064228;28;20448;-87
2021/06/04 11:00:42;;;;;;;4.30;3.53;;;25.50;72.20;;;;;;5072421;28;20540;-87
2021/06/04 11:03:15;;;;;;;6.80;4.00;;;25.50;72.40;;;;;;5072068;28;20454;-83
2021/06/04 11:05:54;;;;;;;3.80;3.60;;;25.50;72.30;;;;;;5059036;28;20432;-86
2021/06/04 11:08:47;;;;;;;4.03;3.73;;;25.50;72.30;;;;;;5053897;28;20439;-87
2021/06/04 11:11:24;;;;;;;3.80;3.50;;;25.50;72.20;;;;;;5053584;28;20448;-87
2021/06/04 11:14:11;;;;;;;3.93;3.63;;;25.50;72.40;;;;;;5053960;28;20440;-87
2021/06/04 11:16:45;;;;;;;4.13;3.67;;;25.50;72.20;;;;;;5053637;28;20445;-84
2021/06/04 11:19:19;;;;;;;5.27;4.73;;;25.50;72.50;;;;;;5053495;28;20859;-87
2021/06/04 11:21:49;;;;;;;6.20;3.67;;;25.50;73.50;;;;;;5053547;28;20549;-87
2021/06/04 11:24:27;;;;;;;5.07;3.80;;;25.50;72.80;;;;;;5053512;28;20442;-87
2021/06/04 11:26:56;;;;;;;6.50;3.47;;;25.50;72.40;;;;;;5053622;28;20447;-87
2021/06/04 11:29:25;;;;;;;4.10;3.70;;;25.50;72.40;;;;;;5053336;28;20980;-87
2021/06/04 11:32:00;;;;;;;6.43;4.17;;;25.50;72.30;;;;;;5052965;28;20444;-87
2021/06/04 11:34:43;;;;;;;6.93;4.63;;;25.50;72.20;;;;;;5053855;28;20574;-84
2021/06/04 11:37:12;;;;;;;6.53;5.50;;;25.50;72.30;;;;;;5053570;28;20439;-84
2021/06/04 11:39:43;;;;;;;5.00;4.50;;;25.50;73.50;;;;;;5053659;28;20439;-84
2021/06/04 11:42:13;;;;;;;4.43;4.07;;;25.50;73.80;;;;;;5053617;28;20598;-87
2021/06/04 11:44:46;;;;;;;4.60;4.30;;;25.60;74.20;;;;;;5053301;28;20444;-83
2021/06/04 11:47:35;;;;;;;6.17;5.37;;;25.60;74.70;;;;;;5053508;28;20443;-85
2021/06/04 11:50:30;;;;;;;4.80;4.40;;;25.60;74.80;;;;;;5053432;28;20480;-86
2021/06/04 11:53:15;;;;;;;6.27;4.10;;;25.50;73.40;;;;;;5053690;28;20853;-85
2021/06/04 11:55:42;;;;;;;4.40;4.13;;;25.50;73.10;;;;;;5036429;28;20452;-86
2021/06/04 11:58:38;;;;;;;4.43;3.90;;;25.50;72.90;;;;;;5053352;28;20445;-85
2021/06/04 12:01:16;;;;;;;12.47;5.70;;;25.50;72.70;;;;;;5053309;28;20886;-85
2021/06/04 12:03:49;;;;;;;13.20;7.47;;;25.50;72.60;;;;;;5053332;28;20451;-85
2021/06/04 12:06:50;;;;;;;10.43;5.70;;;25.50;72.60;;;;;;5053053;28;20440;-85
2021/06/04 12:09:48;;;;;;;9.40;6.47;;;25.50;72.40;;;;;;5053210;28;20447;-87
2021/06/04 12:13:02;;;;;;;9.40;6.37;;;25.50;72.60;;;;;;5056038;28;20443;-84
2021/06/04 12:15:45;;;;;;;12.43;6.57;;;25.50;72.40;;;;;;5057252;28;20478;-86
2021/06/04 12:18:52;;;;;;;11.90;6.17;;;25.50;72.60;;;;;;5057394;28;20971;-85
2021/06/04 12:22:06;;;;;;;12.60;5.97;;;25.50;72.60;;;;;;5057370;28;20520;-86
2021/06/04 12:25:01;;;;;;;13.90;7.27;;;25.50;72.90;;;;;;5057234;28;20457;-85
2021/06/04 12:28:00;;;;;;;9.90;6.57;;;25.50;73.20;;;;;;5057267;28;20530;-85
2021/06/04 12:30:54;;;;;;;13.50;6.93;;;25.50;72.90;;;;;;5056880;28;20945;-86
2021/06/04 12:33:54;;;;;;;8.27;5.90;;;25.50;72.90;;;;;;5057012;28;20452;-88
2021/06/04 12:37:01;;;;;;;10.70;5.40;;;25.60;73.40;;;;;;5057128;28;20445;-86
2021/06/04 12:39:44;;;;;;;15.33;6.70;;;25.50;73.70;;;;;;5057607;28;20538;-86
2021/06/04 12:42:30;;;;;;;12.83;5.73;;;25.50;73.20;;;;;;5057236;28;20553;-86
2021/06/04 12:44:59;;;;;;;10.20;6.53;;;25.50;73.30;;;;;;5053755;28;20492;-86
2021/06/04 12:47:30;;;;;;;10.10;6.60;;;25.50;73.40;;;;;;5057139;28;20451;-86
2021/06/04 12:50:14;;;;;;;13.13;6.00;;;25.50;73.40;;;;;;5056960;28;20791;-85
2021/06/04 12:52:42;;;;;;;15.20;5.83;;;25.60;73.50;;;;;;5056867;28;20446;-85
2021/06/04 12:55:14;;;;;;;6.20;5.60;;;25.50;73.80;;;;;;5039098;28;20443;-86
2021/06/04 12:57:40;;;;;;;11.83;5.70;;;25.60;73.90;;;;;;5056599;28;20448;-85
2021/06/04 13:00:21;;;;;;;8.80;5.20;;;25.60;73.80;;;;;;5056279;28;20475;-85
2021/06/04 13:02:54;;;;;;;13.30;5.10;;;25.60;74.10;;;;;;5056397;28;20501;-86
2021/06/04 13:05:24;;;;;;;16.97;6.43;;;25.60;74.20;;;;;;5056636;28;20516;-85
2021/06/04 13:07:52;;;;;;;11.70;6.30;;;25.60;74.00;;;;;;5056592;28;20436;-85
2021/06/04 13:10:21;;;;;;;11.00;6.40;;;25.70;74.00;;;;;;5056061;28;20936;-85